sensor_id;sensor_type;location;lat;lon;timestamp;temperature;humidity
14727;DHT22;7454;51.256;8.176;2023-04-03T00:01:31;2.60;77.50
14727;DHT22;7454;51.256;8.176;2023-04-03T00:03:57;2.60;77.50
14727;DHT22;7454;51.256;8.176;2023-04-03T00:06:23;2.50;77.50
14727;DHT22;7454;51.256;8.176;2023-04-03T00:08:51;2.50;77.60
14727;DHT22;7454;51.256;8.176;2023-04-03T00:11:17;2.50;77.70
14727;DHT22;7454;51.256;8.176;2023-04-03T00:13:43;2.40;77.50
14727;DHT22;7454;51.256;8.176;2023-04-03T00:16:10;2.40;77.60
14727;DHT22;7454;51.256;8.176;2023-04-03T00:18:36;2.30;77.60
14727;DHT22;7454;51.256;8.176;2023-04-03T00:21:02;2.30;77.60
14727;DHT22;7454;51.256;8.176;2023-04-03T00:23:29;2.30;77.60
14727;DHT22;7454;51.256;8.176;2023-04-03T00:25:54;2.30;77.50
14727;DHT22;7454;51.256;8.176;2023-04-03T00:28:21;2.30;77.60
14727;DHT22;7454;51.256;8.176;2023-04-03T00:30:50;2.30;77.60
14727;DHT22;7454;51.256;8.176;2023-04-03T00:33:16;2.20;77.60
14727;DHT22;7454;51.256;8.176;2023-04-03T00:35:42;2.20;77.60
14727;DHT22;7454;51.256;8.176;2023-04-03T00:38:08;2.20;77.60
14727;DHT22;7454;51.256;8.176;2023-04-03T00:40:35;2.20;77.50
14727;DHT22;7454;51.256;8.176;2023-04-03T00:43:05;2.30;77.50
14727;DHT22;7454;51.256;8.176;2023-04-03T00:45:47;2.30;77.50
14727;DHT22;7454;51.256;8.176;2023-04-03T00:48:21;2.30;77.50
14727;DHT22;7454;51.256;8.176;2023-04-03T00:50:50;2.30;77.50
14727;DHT22;7454;51.256;8.176;2023-04-03T00:53:18;2.30;77.40
14727;DHT22;7454;51.256;8.176;2023-04-03T00:55:47;2.30;77.50
14727;DHT22;7454;51.256;8.176;2023-04-03T00:58:13;2.30;77.30
14727;DHT22;7454;51.256;8.176;2023-04-03T01:00:41;2.30;77.40
14727;DHT22;7454;51.256;8.176;2023-04-03T01:03:10;2.30;77.30
14727;DHT22;7454;51.256;8.176;2023-04-03T01:05:38;2.30;77.20
14727;DHT22;7454;51.256;8.176;2023-04-03T01:08:05;2.30;77.00
14727;DHT22;7454;51.256;8.176;2023-04-03T01:10:32;2.30;77.10
14727;DHT22;7454;51.256;8.176;2023-04-03T01:12:58;2.20;77.10
14727;DHT22;7454;51.256;8.176;2023-04-03T01:15:26;2.20;77.20
14727;DHT22;7454;51.256;8.176;2023-04-03T01:17:55;2.20;77.10
14727;DHT22;7454;51.256;8.176;2023-04-03T01:25:43;2.10;77.10
14727;DHT22;7454;51.256;8.176;2023-04-03T01:28:12;2.00;77.20
14727;DHT22;7454;51.256;8.176;2023-04-03T01:30:43;2.00;77.20
14727;DHT22;7454;51.256;8.176;2023-04-03T01:33:17;2.00;77.20
14727;DHT22;7454;51.256;8.176;2023-04-03T01:35:43;2.00;77.20
14727;DHT22;7454;51.256;8.176;2023-04-03T01:38:10;2.00;77.10
14727;DHT22;7454;51.256;8.176;2023-04-03T01:40:35;2.00;77.00
14727;DHT22;7454;51.256;8.176;2023-04-03T01:43:02;2.00;77.00
14727;DHT22;7454;51.256;8.176;2023-04-03T01:45:28;2.00;77.00
14727;DHT22;7454;51.256;8.176;2023-04-03T01:47:54;2.00;77.00
14727;DHT22;7454;51.256;8.176;2023-04-03T01:50:20;2.00;77.10
14727;DHT22;7454;51.256;8.176;2023-04-03T01:52:46;2.00;77.10
14727;DHT22;7454;51.256;8.176;2023-04-03T01:55:12;2.10;76.80
14727;DHT22;7454;51.256;8.176;2023-04-03T01:57:38;2.00;76.90
14727;DHT22;7454;51.256;8.176;2023-04-03T02:00:04;2.00;76.70
14727;DHT22;7454;51.256;8.176;2023-04-03T02:02:38;2.00;76.70
14727;DHT22;7454;51.256;8.176;2023-04-03T02:05:04;1.90;76.70
14727;DHT22;7454;51.256;8.176;2023-04-03T02:07:31;1.90;77.00
14727;DHT22;7454;51.256;8.176;2023-04-03T02:09:56;1.80;76.90
14727;DHT22;7454;51.256;8.176;2023-04-03T02:12:22;1.80;76.90
14727;DHT22;7454;51.256;8.176;2023-04-03T02:14:48;1.80;77.10
14727;DHT22;7454;51.256;8.176;2023-04-03T02:17:13;1.80;77.00
14727;DHT22;7454;51.256;8.176;2023-04-03T02:19:40;1.70;77.00
14727;DHT22;7454;51.256;8.176;2023-04-03T02:22:06;1.80;77.00
14727;DHT22;7454;51.256;8.176;2023-04-03T02:24:32;1.70;77.00
14727;DHT22;7454;51.256;8.176;2023-04-03T02:26:58;1.70;77.10
14727;DHT22;7454;51.256;8.176;2023-04-03T02:29:24;1.80;76.90
14727;DHT22;7454;51.256;8.176;2023-04-03T02:31:50;1.70;76.80
14727;DHT22;7454;51.256;8.176;2023-04-03T02:34:17;1.80;76.80
14727;DHT22;7454;51.256;8.176;2023-04-03T02:36:44;1.80;76.90
14727;DHT22;7454;51.256;8.176;2023-04-03T02:39:11;1.80;76.80
14727;DHT22;7454;51.256;8.176;2023-04-03T02:41:40;1.80;76.70
14727;DHT22;7454;51.256;8.176;2023-04-03T02:44:12;1.80;76.80
14727;DHT22;7454;51.256;8.176;2023-04-03T02:46:39;1.90;76.80
14727;DHT22;7454;51.256;8.176;2023-04-03T02:49:04;1.90;76.80
14727;DHT22;7454;51.256;8.176;2023-04-03T02:51:31;1.80;76.60
14727;DHT22;7454;51.256;8.176;2023-04-03T02:53:57;1.80;76.80
14727;DHT22;7454;51.256;8.176;2023-04-03T02:56:26;1.80;76.80
14727;DHT22;7454;51.256;8.176;2023-04-03T02:58:52;1.80;76.90
14727;DHT22;7454;51.256;8.176;2023-04-03T03:01:19;1.80;76.80
14727;DHT22;7454;51.256;8.176;2023-04-03T03:03:45;1.80;76.90
14727;DHT22;7454;51.256;8.176;2023-04-03T03:06:11;1.80;76.90
14727;DHT22;7454;51.256;8.176;2023-04-03T03:08:39;1.80;76.90
14727;DHT22;7454;51.256;8.176;2023-04-03T03:11:05;1.70;76.80
14727;DHT22;7454;51.256;8.176;2023-04-03T03:13:32;1.70;76.80
14727;DHT22;7454;51.256;8.176;2023-04-03T03:15:58;1.70;76.80
14727;DHT22;7454;51.256;8.176;2023-04-03T03:18:24;1.70;76.80
14727;DHT22;7454;51.256;8.176;2023-04-03T03:20:51;1.70;76.80
14727;DHT22;7454;51.256;8.176;2023-04-03T03:23:19;1.70;76.80
14727;DHT22;7454;51.256;8.176;2023-04-03T03:25:45;1.60;76.80
14727;DHT22;7454;51.256;8.176;2023-04-03T03:28:11;1.60;76.70
14727;DHT22;7454;51.256;8.176;2023-04-03T03:30:37;1.60;76.70
14727;DHT22;7454;51.256;8.176;2023-04-03T03:33:03;1.50;76.80
14727;DHT22;7454;51.256;8.176;2023-04-03T03:35:29;1.50;76.80
14727;DHT22;7454;51.256;8.176;2023-04-03T03:37:54;1.50;76.90
14727;DHT22;7454;51.256;8.176;2023-04-03T03:40:21;1.50;77.00
14727;DHT22;7454;51.256;8.176;2023-04-03T03:42:46;1.50;76.90
14727;DHT22;7454;51.256;8.176;2023-04-03T03:45:12;1.50;76.80
14727;DHT22;7454;51.256;8.176;2023-04-03T03:47:38;1.40;76.90
14727;DHT22;7454;51.256;8.176;2023-04-03T03:50:06;1.40;76.90
14727;DHT22;7454;51.256;8.176;2023-04-03T03:52:32;1.40;76.90
14727;DHT22;7454;51.256;8.176;2023-04-03T03:54:58;1.50;76.90
14727;DHT22;7454;51.256;8.176;2023-04-03T03:57:23;1.40;76.90
14727;DHT22;7454;51.256;8.176;2023-04-03T03:59:49;1.30;77.00
14727;DHT22;7454;51.256;8.176;2023-04-03T04:02:17;1.30;76.90
14727;DHT22;7454;51.256;8.176;2023-04-03T04:04:43;1.30;76.90
14727;DHT22;7454;51.256;8.176;2023-04-03T04:07:10;1.20;76.90
14727;DHT22;7454;51.256;8.176;2023-04-03T04:09:43;1.20;76.90
14727;DHT22;7454;51.256;8.176;2023-04-03T04:12:11;1.20;76.90
14727;DHT22;7454;51.256;8.176;2023-04-03T04:14:37;1.10;76.90
14727;DHT22;7454;51.256;8.176;2023-04-03T04:17:05;1.10;76.90
14727;DHT22;7454;51.256;8.176;2023-04-03T04:19:31;1.10;76.90
14727;DHT22;7454;51.256;8.176;2023-04-03T04:21:58;1.10;76.80
14727;DHT22;7454;51.256;8.176;2023-04-03T04:24:24;1.10;76.90
14727;DHT22;7454;51.256;8.176;2023-04-03T04:26:52;1.10;76.90
14727;DHT22;7454;51.256;8.176;2023-04-03T04:29:19;1.00;76.80
14727;DHT22;7454;51.256;8.176;2023-04-03T04:31:48;1.00;77.00
14727;DHT22;7454;51.256;8.176;2023-04-03T04:34:13;1.00;77.00
14727;DHT22;7454;51.256;8.176;2023-04-03T04:36:39;1.00;76.90
14727;DHT22;7454;51.256;8.176;2023-04-03T04:39:05;1.00;76.90
14727;DHT22;7454;51.256;8.176;2023-04-03T04:41:31;1.10;77.10
14727;DHT22;7454;51.256;8.176;2023-04-03T04:43:58;1.00;76.90
14727;DHT22;7454;51.256;8.176;2023-04-03T04:46:25;1.00;77.00
14727;DHT22;7454;51.256;8.176;2023-04-03T04:48:55;1.00;76.80
14727;DHT22;7454;51.256;8.176;2023-04-03T04:51:22;1.00;77.00
14727;DHT22;7454;51.256;8.176;2023-04-03T04:53:47;1.00;77.00
14727;DHT22;7454;51.256;8.176;2023-04-03T04:56:16;0.90;76.90
14727;DHT22;7454;51.256;8.176;2023-04-03T04:58:42;0.90;76.90
14727;DHT22;7454;51.256;8.176;2023-04-03T05:01:09;1.20;77.10
14727;DHT22;7454;51.256;8.176;2023-04-03T05:03:42;1.00;76.90
14727;DHT22;7454;51.256;8.176;2023-04-03T05:06:08;0.90;76.90
14727;DHT22;7454;51.256;8.176;2023-04-03T05:08:38;0.80;76.80
14727;DHT22;7454;51.256;8.176;2023-04-03T05:11:04;0.80;76.90
14727;DHT22;7454;51.256;8.176;2023-04-03T05:13:30;0.80;76.90
14727;DHT22;7454;51.256;8.176;2023-04-03T05:15:56;0.90;76.90
14727;DHT22;7454;51.256;8.176;2023-04-03T05:18:22;0.80;76.90
14727;DHT22;7454;51.256;8.176;2023-04-03T05:20:49;0.80;76.90
14727;DHT22;7454;51.256;8.176;2023-04-03T05:23:17;0.80;76.80
14727;DHT22;7454;51.256;8.176;2023-04-03T05:25:44;0.80;77.00
14727;DHT22;7454;51.256;8.176;2023-04-03T05:28:12;0.80;77.00
14727;DHT22;7454;51.256;8.176;2023-04-03T05:30:38;0.80;76.90
14727;DHT22;7454;51.256;8.176;2023-04-03T05:33:04;0.70;76.80
14727;DHT22;7454;51.256;8.176;2023-04-03T05:35:37;0.70;76.90
14727;DHT22;7454;51.256;8.176;2023-04-03T05:38:09;0.70;76.90
14727;DHT22;7454;51.256;8.176;2023-04-03T05:40:35;0.70;76.90
14727;DHT22;7454;51.256;8.176;2023-04-03T05:43:02;0.70;76.90
14727;DHT22;7454;51.256;8.176;2023-04-03T05:45:32;0.80;76.80
14727;DHT22;7454;51.256;8.176;2023-04-03T05:47:58;0.80;77.00
14727;DHT22;7454;51.256;8.176;2023-04-03T05:50:24;0.80;77.10
14727;DHT22;7454;51.256;8.176;2023-04-03T05:52:52;0.70;77.00
14727;DHT22;7454;51.256;8.176;2023-04-03T05:55:20;0.80;76.90
14727;DHT22;7454;51.256;8.176;2023-04-03T05:57:46;0.70;76.90
14727;DHT22;7454;51.256;8.176;2023-04-03T06:00:12;0.80;76.90
14727;DHT22;7454;51.256;8.176;2023-04-03T06:02:43;0.80;76.90
14727;DHT22;7454;51.256;8.176;2023-04-03T06:05:15;0.80;77.00
14727;DHT22;7454;51.256;8.176;2023-04-03T06:07:41;0.80;76.90
14727;DHT22;7454;51.256;8.176;2023-04-03T06:10:10;0.80;76.90
14727;DHT22;7454;51.256;8.176;2023-04-03T06:12:37;0.80;76.70
14727;DHT22;7454;51.256;8.176;2023-04-03T06:15:03;0.90;77.00
14727;DHT22;7454;51.256;8.176;2023-04-03T06:17:29;0.90;76.90
14727;DHT22;7454;51.256;8.176;2023-04-03T06:19:55;1.00;76.80
14727;DHT22;7454;51.256;8.176;2023-04-03T06:22:23;0.90;76.80
14727;DHT22;7454;51.256;8.176;2023-04-03T06:24:51;0.90;76.80
14727;DHT22;7454;51.256;8.176;2023-04-03T06:27:16;0.90;76.70
14727;DHT22;7454;51.256;8.176;2023-04-03T06:29:42;1.00;76.90
14727;DHT22;7454;51.256;8.176;2023-04-03T06:32:08;1.00;76.70
14727;DHT22;7454;51.256;8.176;2023-04-03T06:34:34;1.10;76.70
14727;DHT22;7454;51.256;8.176;2023-04-03T06:37:00;1.10;76.60
14727;DHT22;7454;51.256;8.176;2023-04-03T06:39:26;1.10;76.80
14727;DHT22;7454;51.256;8.176;2023-04-03T06:41:52;1.10;76.70
14727;DHT22;7454;51.256;8.176;2023-04-03T06:44:25;1.10;76.50
14727;DHT22;7454;51.256;8.176;2023-04-03T06:46:51;1.10;76.50
14727;DHT22;7454;51.256;8.176;2023-04-03T06:49:17;1.10;76.60
14727;DHT22;7454;51.256;8.176;2023-04-03T06:51:43;1.10;76.60
14727;DHT22;7454;51.256;8.176;2023-04-03T06:54:09;1.20;76.60
14727;DHT22;7454;51.256;8.176;2023-04-03T06:56:35;1.20;76.50
14727;DHT22;7454;51.256;8.176;2023-04-03T06:59:03;1.30;76.40
14727;DHT22;7454;51.256;8.176;2023-04-03T07:01:30;1.40;76.40
14727;DHT22;7454;51.256;8.176;2023-04-03T07:03:56;1.40;76.40
14727;DHT22;7454;51.256;8.176;2023-04-03T07:06:21;1.50;76.20
14727;DHT22;7454;51.256;8.176;2023-04-03T07:08:47;1.60;76.10
14727;DHT22;7454;51.256;8.176;2023-04-03T07:11:16;1.60;76.10
14727;DHT22;7454;51.256;8.176;2023-04-03T07:13:42;1.60;76.10
14727;DHT22;7454;51.256;8.176;2023-04-03T07:16:08;1.70;76.10
14727;DHT22;7454;51.256;8.176;2023-04-03T07:18:34;1.80;76.00
14727;DHT22;7454;51.256;8.176;2023-04-03T07:21:00;1.90;76.00
14727;DHT22;7454;51.256;8.176;2023-04-03T07:23:27;2.00;76.00
14727;DHT22;7454;51.256;8.176;2023-04-03T07:25:53;2.00;75.90
14727;DHT22;7454;51.256;8.176;2023-04-03T07:28:19;2.10;76.00
14727;DHT22;7454;51.256;8.176;2023-04-03T07:30:49;2.10;75.90
14727;DHT22;7454;51.256;8.176;2023-04-03T07:33:31;2.20;75.90
14727;DHT22;7454;51.256;8.176;2023-04-03T07:35:58;2.30;75.60
14727;DHT22;7454;51.256;8.176;2023-04-03T07:38:24;2.30;75.00
14727;DHT22;7454;51.256;8.176;2023-04-03T07:40:50;2.40;74.80
14727;DHT22;7454;51.256;8.176;2023-04-03T07:43:18;2.50;74.60
14727;DHT22;7454;51.256;8.176;2023-04-03T07:45:45;2.60;74.20
14727;DHT22;7454;51.256;8.176;2023-04-03T07:48:12;2.60;73.80
14727;DHT22;7454;51.256;8.176;2023-04-03T07:50:41;2.60;73.60
14727;DHT22;7454;51.256;8.176;2023-04-03T07:53:07;2.60;73.20
14727;DHT22;7454;51.256;8.176;2023-04-03T07:55:33;2.70;73.00
14727;DHT22;7454;51.256;8.176;2023-04-03T07:57:59;2.80;73.10
14727;DHT22;7454;51.256;8.176;2023-04-03T08:00:25;2.80;72.30
14727;DHT22;7454;51.256;8.176;2023-04-03T08:02:51;2.80;72.40
14727;DHT22;7454;51.256;8.176;2023-04-03T08:05:17;2.80;71.50
14727;DHT22;7454;51.256;8.176;2023-04-03T08:07:44;2.80;71.60
14727;DHT22;7454;51.256;8.176;2023-04-03T08:10:10;2.90;71.70
14727;DHT22;7454;51.256;8.176;2023-04-03T08:12:36;2.80;72.00
14727;DHT22;7454;51.256;8.176;2023-04-03T08:15:02;2.90;72.00
14727;DHT22;7454;51.256;8.176;2023-04-03T08:17:29;2.90;71.30
14727;DHT22;7454;51.256;8.176;2023-04-03T08:19:54;2.80;70.90
14727;DHT22;7454;51.256;8.176;2023-04-03T08:22:20;2.80;71.30
14727;DHT22;7454;51.256;8.176;2023-04-03T08:24:46;2.90;71.50
14727;DHT22;7454;51.256;8.176;2023-04-03T08:27:12;2.90;71.40
14727;DHT22;7454;51.256;8.176;2023-04-03T08:29:37;2.90;71.80
14727;DHT22;7454;51.256;8.176;2023-04-03T08:32:04;3.00;71.50
14727;DHT22;7454;51.256;8.176;2023-04-03T08:34:30;3.10;71.60
14727;DHT22;7454;51.256;8.176;2023-04-03T08:37:00;3.10;71.10
14727;DHT22;7454;51.256;8.176;2023-04-03T08:39:27;3.10;70.70
14727;DHT22;7454;51.256;8.176;2023-04-03T08:41:52;3.10;70.70
14727;DHT22;7454;51.256;8.176;2023-04-03T08:44:24;3.10;70.20
14727;DHT22;7454;51.256;8.176;2023-04-03T08:46:55;3.20;69.30
14727;DHT22;7454;51.256;8.176;2023-04-03T08:49:44;3.20;69.00
14727;DHT22;7454;51.256;8.176;2023-04-03T08:52:20;3.20;68.70
14727;DHT22;7454;51.256;8.176;2023-04-03T08:55:05;3.20;69.30
14727;DHT22;7454;51.256;8.176;2023-04-03T08:57:38;3.30;69.00
14727;DHT22;7454;51.256;8.176;2023-04-03T09:00:07;3.30;69.30
14727;DHT22;7454;51.256;8.176;2023-04-03T09:02:41;3.40;69.50
14727;DHT22;7454;51.256;8.176;2023-04-03T09:05:11;3.40;68.30
14727;DHT22;7454;51.256;8.176;2023-04-03T09:07:42;3.40;67.90
14727;DHT22;7454;51.256;8.176;2023-04-03T09:10:10;3.50;67.30
14727;DHT22;7454;51.256;8.176;2023-04-03T09:12:38;3.50;67.70
14727;DHT22;7454;51.256;8.176;2023-04-03T09:15:23;3.50;66.00
14727;DHT22;7454;51.256;8.176;2023-04-03T09:23:41;3.60;65.50
14727;DHT22;7454;51.256;8.176;2023-04-03T09:26:14;3.70;65.60
14727;DHT22;7454;51.256;8.176;2023-04-03T09:28:43;3.70;65.30
14727;DHT22;7454;51.256;8.176;2023-04-03T09:31:14;3.70;65.00
14727;DHT22;7454;51.256;8.176;2023-04-03T09:33:42;3.70;65.30
14727;DHT22;7454;51.256;8.176;2023-04-03T09:36:07;3.70;64.90
14727;DHT22;7454;51.256;8.176;2023-04-03T09:38:33;3.80;65.60
14727;DHT22;7454;51.256;8.176;2023-04-03T09:41:06;3.80;65.70
14727;DHT22;7454;51.256;8.176;2023-04-03T09:44:17;3.80;64.70
14727;DHT22;7454;51.256;8.176;2023-04-03T09:46:32;3.80;64.90
14727;DHT22;7454;51.256;8.176;2023-04-03T09:48:59;3.90;64.90
14727;DHT22;7454;51.256;8.176;2023-04-03T09:51:29;3.90;64.20
14727;DHT22;7454;51.256;8.176;2023-04-03T09:53:56;4.00;63.70
14727;DHT22;7454;51.256;8.176;2023-04-03T09:56:28;4.00;63.40
14727;DHT22;7454;51.256;8.176;2023-04-03T10:01:33;4.00;62.80
14727;DHT22;7454;51.256;8.176;2023-04-03T10:06:35;4.00;62.80
14727;DHT22;7454;51.256;8.176;2023-04-03T10:09:28;4.00;62.90
14727;DHT22;7454;51.256;8.176;2023-04-03T10:12:09;4.00;62.70
14727;DHT22;7454;51.256;8.176;2023-04-03T10:14:38;4.10;63.00
14727;DHT22;7454;51.256;8.176;2023-04-03T10:25:28;4.20;62.70
14727;DHT22;7454;51.256;8.176;2023-04-03T10:30:49;4.20;62.80
14727;DHT22;7454;51.256;8.176;2023-04-03T10:46:50;4.50;63.00
14727;DHT22;7454;51.256;8.176;2023-04-03T10:49:30;4.50;62.50
14727;DHT22;7454;51.256;8.176;2023-04-03T10:51:59;4.60;62.10
14727;DHT22;7454;51.256;8.176;2023-04-03T10:54:38;4.50;62.10
14727;DHT22;7454;51.256;8.176;2023-04-03T10:57:06;4.50;62.20
14727;DHT22;7454;51.256;8.176;2023-04-03T10:59:47;4.50;62.10
14727;DHT22;7454;51.256;8.176;2023-04-03T11:02:30;4.50;61.60
14727;DHT22;7454;51.256;8.176;2023-04-03T11:05:02;4.60;61.80
14727;DHT22;7454;51.256;8.176;2023-04-03T11:07:37;4.60;61.70
14727;DHT22;7454;51.256;8.176;2023-04-03T11:10:12;4.60;61.40
14727;DHT22;7454;51.256;8.176;2023-04-03T11:13:02;4.70;61.80
14727;DHT22;7454;51.256;8.176;2023-04-03T11:15:45;4.70;62.00
14727;DHT22;7454;51.256;8.176;2023-04-03T11:18:29;4.70;62.20
14727;DHT22;7454;51.256;8.176;2023-04-03T11:21:10;4.80;62.10
14727;DHT22;7454;51.256;8.176;2023-04-03T11:23:43;4.80;61.50
14727;DHT22;7454;51.256;8.176;2023-04-03T11:26:19;4.80;61.30
14727;DHT22;7454;51.256;8.176;2023-04-03T11:28:51;4.90;61.80
14727;DHT22;7454;51.256;8.176;2023-04-03T11:31:23;4.90;62.00
14727;DHT22;7454;51.256;8.176;2023-04-03T11:39:20;4.90;62.30
14727;DHT22;7454;51.256;8.176;2023-04-03T11:41:51;5.00;62.10
14727;DHT22;7454;51.256;8.176;2023-04-03T11:46:56;4.90;62.40
14727;DHT22;7454;51.256;8.176;2023-04-03T11:53:28;5.00;62.50
14727;DHT22;7454;51.256;8.176;2023-04-03T11:55:52;5.10;62.70
14727;DHT22;7454;51.256;8.176;2023-04-03T11:58:21;5.10;61.70
14727;DHT22;7454;51.256;8.176;2023-04-03T12:00:48;5.00;62.20
14727;DHT22;7454;51.256;8.176;2023-04-03T12:03:34;5.10;62.10
14727;DHT22;7454;51.256;8.176;2023-04-03T12:08:57;5.20;62.20
14727;DHT22;7454;51.256;8.176;2023-04-03T12:11:24;5.20;62.10
14727;DHT22;7454;51.256;8.176;2023-04-03T12:26:50;5.40;62.20
14727;DHT22;7454;51.256;8.176;2023-04-03T12:32:06;5.40;62.80
14727;DHT22;7454;51.256;8.176;2023-04-03T12:35:02;5.40;62.20
14727;DHT22;7454;51.256;8.176;2023-04-03T12:43:15;5.40;62.00
14727;DHT22;7454;51.256;8.176;2023-04-03T12:45:50;5.40;62.40
14727;DHT22;7454;51.256;8.176;2023-04-03T12:48:22;5.50;61.70
14727;DHT22;7454;51.256;8.176;2023-04-03T12:50:51;5.50;61.70
14727;DHT22;7454;51.256;8.176;2023-04-03T12:53:33;5.50;61.60
14727;DHT22;7454;51.256;8.176;2023-04-03T12:56:20;5.50;62.10
14727;DHT22;7454;51.256;8.176;2023-04-03T12:58:48;5.50;61.50
14727;DHT22;7454;51.256;8.176;2023-04-03T13:01:16;5.50;62.10
14727;DHT22;7454;51.256;8.176;2023-04-03T13:03:45;5.60;61.80
14727;DHT22;7454;51.256;8.176;2023-04-03T13:06:19;5.60;61.60
14727;DHT22;7454;51.256;8.176;2023-04-03T13:08:59;5.60;61.80
14727;DHT22;7454;51.256;8.176;2023-04-03T13:11:27;5.60;61.80
14727;DHT22;7454;51.256;8.176;2023-04-03T13:14:00;5.70;61.60
14727;DHT22;7454;51.256;8.176;2023-04-03T13:16:28;5.70;61.80
14727;DHT22;7454;51.256;8.176;2023-04-03T13:18:55;5.60;61.80
14727;DHT22;7454;51.256;8.176;2023-04-03T13:21:25;5.60;62.10
14727;DHT22;7454;51.256;8.176;2023-04-03T13:23:53;5.70;62.30
14727;DHT22;7454;51.256;8.176;2023-04-03T13:26:22;5.70;61.90
14727;DHT22;7454;51.256;8.176;2023-04-03T13:28:48;5.70;62.40
14727;DHT22;7454;51.256;8.176;2023-04-03T13:31:20;5.70;62.60
14727;DHT22;7454;51.256;8.176;2023-04-03T13:33:56;5.70;62.20
14727;DHT22;7454;51.256;8.176;2023-04-03T13:36:31;5.70;62.40
14727;DHT22;7454;51.256;8.176;2023-04-03T13:41:39;5.70;61.60
14727;DHT22;7454;51.256;8.176;2023-04-03T13:46:51;5.70;62.10
14727;DHT22;7454;51.256;8.176;2023-04-03T13:49:19;5.80;62.30
14727;DHT22;7454;51.256;8.176;2023-04-03T13:52:21;5.80;62.20
14727;DHT22;7454;51.256;8.176;2023-04-03T13:54:51;5.80;62.10
14727;DHT22;7454;51.256;8.176;2023-04-03T13:57:19;5.90;61.90
14727;DHT22;7454;51.256;8.176;2023-04-03T13:59:45;5.90;62.10
14727;DHT22;7454;51.256;8.176;2023-04-03T14:07:14;5.90;61.70
14727;DHT22;7454;51.256;8.176;2023-04-03T14:09:41;5.90;61.70
14727;DHT22;7454;51.256;8.176;2023-04-03T14:12:08;5.90;61.70
14727;DHT22;7454;51.256;8.176;2023-04-03T14:14:40;6.00;61.50
14727;DHT22;7454;51.256;8.176;2023-04-03T14:17:17;6.00;61.70
14727;DHT22;7454;51.256;8.176;2023-04-03T14:19:45;5.90;61.30
14727;DHT22;7454;51.256;8.176;2023-04-03T14:24:50;5.90;61.40
14727;DHT22;7454;51.256;8.176;2023-04-03T14:27:21;5.90;61.90
14727;DHT22;7454;51.256;8.176;2023-04-03T14:29:51;6.00;62.20
14727;DHT22;7454;51.256;8.176;2023-04-03T14:32:18;5.90;61.90
14727;DHT22;7454;51.256;8.176;2023-04-03T14:34:45;6.00;61.60
14727;DHT22;7454;51.256;8.176;2023-04-03T14:37:13;5.90;61.60
14727;DHT22;7454;51.256;8.176;2023-04-03T14:39:40;5.90;61.40
14727;DHT22;7454;51.256;8.176;2023-04-03T14:42:09;6.00;61.40
14727;DHT22;7454;51.256;8.176;2023-04-03T14:44:39;5.90;61.50
14727;DHT22;7454;51.256;8.176;2023-04-03T14:47:08;5.90;61.30
14727;DHT22;7454;51.256;8.176;2023-04-03T14:49:35;6.00;61.40
14727;DHT22;7454;51.256;8.176;2023-04-03T14:52:01;5.90;61.60
14727;DHT22;7454;51.256;8.176;2023-04-03T14:54:27;6.00;61.80
14727;DHT22;7454;51.256;8.176;2023-04-03T14:56:55;6.00;62.00
14727;DHT22;7454;51.256;8.176;2023-04-03T14:59:21;6.00;61.70
14727;DHT22;7454;51.256;8.176;2023-04-03T15:01:47;6.10;61.80
14727;DHT22;7454;51.256;8.176;2023-04-03T15:04:14;6.00;61.90
14727;DHT22;7454;51.256;8.176;2023-04-03T15:06:41;6.00;61.70
14727;DHT22;7454;51.256;8.176;2023-04-03T15:09:26;6.00;61.60
14727;DHT22;7454;51.256;8.176;2023-04-03T15:11:53;6.00;62.00
14727;DHT22;7454;51.256;8.176;2023-04-03T15:14:19;6.00;61.80
14727;DHT22;7454;51.256;8.176;2023-04-03T15:16:45;6.00;61.30
14727;DHT22;7454;51.256;8.176;2023-04-03T15:19:11;6.00;61.50
14727;DHT22;7454;51.256;8.176;2023-04-03T15:21:37;6.00;61.70
14727;DHT22;7454;51.256;8.176;2023-04-03T15:24:03;6.00;61.60
14727;DHT22;7454;51.256;8.176;2023-04-03T15:26:29;6.00;61.50
14727;DHT22;7454;51.256;8.176;2023-04-03T15:28:55;5.90;61.50
14727;DHT22;7454;51.256;8.176;2023-04-03T15:31:21;5.90;61.20
14727;DHT22;7454;51.256;8.176;2023-04-03T15:33:47;5.80;61.30
14727;DHT22;7454;51.256;8.176;2023-04-03T15:36:12;5.80;61.30
14727;DHT22;7454;51.256;8.176;2023-04-03T15:38:38;5.80;61.40
14727;DHT22;7454;51.256;8.176;2023-04-03T15:41:04;5.80;61.10
14727;DHT22;7454;51.256;8.176;2023-04-03T15:43:30;5.80;61.10
14727;DHT22;7454;51.256;8.176;2023-04-03T15:45:56;5.80;61.30
14727;DHT22;7454;51.256;8.176;2023-04-03T15:48:24;5.90;61.60
14727;DHT22;7454;51.256;8.176;2023-04-03T15:50:54;5.90;61.50
14727;DHT22;7454;51.256;8.176;2023-04-03T15:53:19;6.00;61.60
14727;DHT22;7454;51.256;8.176;2023-04-03T15:55:45;5.90;61.20
14727;DHT22;7454;51.256;8.176;2023-04-03T15:58:11;5.80;61.00
14727;DHT22;7454;51.256;8.176;2023-04-03T16:00:37;5.80;61.30
14727;DHT22;7454;51.256;8.176;2023-04-03T16:03:15;5.80;61.30
14727;DHT22;7454;51.256;8.176;2023-04-03T16:05:42;5.90;61.30
14727;DHT22;7454;51.256;8.176;2023-04-03T16:08:08;5.90;61.50
14727;DHT22;7454;51.256;8.176;2023-04-03T16:10:36;5.90;61.40
14727;DHT22;7454;51.256;8.176;2023-04-03T16:13:03;5.90;61.20
14727;DHT22;7454;51.256;8.176;2023-04-03T16:15:30;5.80;61.40
14727;DHT22;7454;51.256;8.176;2023-04-03T16:17:57;5.80;61.50
14727;DHT22;7454;51.256;8.176;2023-04-03T16:20:23;5.80;61.50
14727;DHT22;7454;51.256;8.176;2023-04-03T16:22:49;5.80;61.10
14727;DHT22;7454;51.256;8.176;2023-04-03T16:25:15;5.80;61.10
14727;DHT22;7454;51.256;8.176;2023-04-03T16:27:41;5.70;60.60
14727;DHT22;7454;51.256;8.176;2023-04-03T16:30:07;5.70;61.30
14727;DHT22;7454;51.256;8.176;2023-04-03T16:32:33;5.70;60.90
14727;DHT22;7454;51.256;8.176;2023-04-03T16:34:59;5.70;61.20
14727;DHT22;7454;51.256;8.176;2023-04-03T16:37:25;5.70;61.30
14727;DHT22;7454;51.256;8.176;2023-04-03T16:39:57;5.70;61.30
14727;DHT22;7454;51.256;8.176;2023-04-03T16:42:24;5.70;61.40
14727;DHT22;7454;51.256;8.176;2023-04-03T16:44:50;5.80;61.20
14727;DHT22;7454;51.256;8.176;2023-04-03T16:47:16;6.10;61.20
14727;DHT22;7454;51.256;8.176;2023-04-03T16:49:44;6.20;61.10
14727;DHT22;7454;51.256;8.176;2023-04-03T16:52:13;6.40;61.00
14727;DHT22;7454;51.256;8.176;2023-04-03T16:54:39;6.50;60.90
14727;DHT22;7454;51.256;8.176;2023-04-03T16:57:04;6.70;61.00
14727;DHT22;7454;51.256;8.176;2023-04-03T16:59:30;6.70;60.80
14727;DHT22;7454;51.256;8.176;2023-04-03T17:01:56;6.70;60.90
14727;DHT22;7454;51.256;8.176;2023-04-03T17:04:22;6.60;60.90
14727;DHT22;7454;51.256;8.176;2023-04-03T17:06:47;6.50;60.90
14727;DHT22;7454;51.256;8.176;2023-04-03T17:09:13;6.30;60.80
14727;DHT22;7454;51.256;8.176;2023-04-03T17:11:42;6.20;61.00
14727;DHT22;7454;51.256;8.176;2023-04-03T17:14:08;6.00;61.10
14727;DHT22;7454;51.256;8.176;2023-04-03T17:16:34;5.80;60.90
14727;DHT22;7454;51.256;8.176;2023-04-03T17:19:01;5.80;61.20
14727;DHT22;7454;51.256;8.176;2023-04-03T17:21:27;5.60;61.00
14727;DHT22;7454;51.256;8.176;2023-04-03T17:23:59;5.60;61.00
14727;DHT22;7454;51.256;8.176;2023-04-03T17:26:26;5.40;61.00
14727;DHT22;7454;51.256;8.176;2023-04-03T17:28:52;5.40;61.10
14727;DHT22;7454;51.256;8.176;2023-04-03T17:31:18;5.40;61.30
14727;DHT22;7454;51.256;8.176;2023-04-03T17:33:47;5.30;61.00
14727;DHT22;7454;51.256;8.176;2023-04-03T17:36:12;5.30;61.10
14727;DHT22;7454;51.256;8.176;2023-04-03T17:38:38;5.10;61.00
14727;DHT22;7454;51.256;8.176;2023-04-03T17:41:05;5.00;61.20